Time;durP1;ratioP1;P1;durP2;ratioP2;P2;SDS_P1;SDS_P2;PMS_P1;PMS_P2;Temp;Humidity;BMP_temperature;BMP_pressure;BME280_temperature;BME280_humidity;BME280_pressure;Samples;Min_cycle;Max_cycle;Signal;HPM_P1;HPM_P2
2022/05/10 00:01:30;;;;;;;33.37;20.30;;;17.50;43.90;;;;;;5023191;23;20276;-69
2022/05/10 00:03:57;;;;;;;24.37;18.20;;;17.70;44.10;;;;;;5016450;28;20283;-70
2022/05/10 00:06:23;;;;;;;30.67;18.70;;;17.80;43.60;;;;;;5009549;28;20458;-69
2022/05/10 00:08:49;;;;;;;28.17;17.97;;;17.80;42.60;;;;;;5024618;28;20499;-70
2022/05/10 00:11:15;;;;;;;27.67;18.57;;;17.70;42.90;;;;;;5018793;28;20533;-70
2022/05/10 00:13:41;;;;;;;23.13;17.70;;;17.50;43.10;;;;;;5026200;28;20422;-70
2022/05/10 00:16:15;;;;;;;24.97;18.23;;;17.40;44.20;;;;;;5031723;28;20201;-70
2022/05/10 00:18:41;;;;;;;29.13;18.47;;;17.40;44.30;;;;;;5028796;28;20489;-71
2022/05/10 00:21:09;;;;;;;29.33;18.00;;;17.50;43.80;;;;;;5010575;28;20533;-70
2022/05/10 00:23:34;;;;;;;42.00;18.73;;;17.50;43.80;;;;;;5019812;28;20423;-71
2022/05/10 00:26:00;;;;;;;23.87;18.97;;;17.40;44.70;;;;;;5011696;28;20437;-69
2022/05/10 00:28:26;;;;;;;28.20;19.10;;;17.50;44.40;;;;;;5011991;28;20270;-70
2022/05/10 00:30:51;;;;;;;26.00;20.27;;;17.30;45.90;;;;;;5010452;28;20205;-70
2022/05/10 00:33:29;;;;;;;27.53;18.97;;;17.30;45.30;;;;;;5016668;28;20246;-70
2022/05/10 00:35:56;;;;;;;28.30;20.70;;;17.20;45.60;;;;;;5008321;28;20256;-70
2022/05/10 00:38:32;;;;;;;30.00;20.93;;;17.20;45.40;;;;;;5011790;28;20429;-70
2022/05/10 00:41:11;;;;;;;31.27;20.63;;;17.30;45.60;;;;;;5009783;28;20826;-70
2022/05/10 00:43:42;;;;;;;25.87;18.53;;;17.40;44.70;;;;;;5017294;28;20991;-70
2022/05/10 00:46:37;;;;;;;26.80;20.30;;;17.30;46.40;;;;;;5023258;28;20421;-70
2022/05/10 00:49:16;;;;;;;25.93;19.63;;;17.40;45.20;;;;;;5009880;28;20430;-70
2022/05/10 00:51:53;;;;;;;25.73;19.53;;;17.50;44.60;;;;;;5023108;28;20447;-70
2022/05/10 00:54:24;;;;;;;27.03;20.70;;;17.30;44.10;;;;;;5019723;28;20405;-70
2022/05/10 00:57:05;;;;;;;25.60;18.10;;;17.60;43.70;;;;;;5011062;28;20834;-70
2022/05/10 00:59:43;;;;;;;30.53;18.57;;;17.50;44.40;;;;;;5015662;28;20410;-70
2022/05/10 01:02:45;;;;;;;29.83;20.20;;;17.40;44.60;;;;;;5025621;28;20578;-70
2022/05/10 01:05:14;;;;;;;27.33;20.13;;;17.40;44.10;;;;;;4985369;28;20424;-70
2022/05/10 01:07:49;;;;;;;28.60;19.87;;;17.40;44.80;;;;;;5028367;28;20413;-71
2022/05/10 01:10:47;;;;;;;27.27;20.33;;;17.40;44.70;;;;;;5021974;28;20905;-70
2022/05/10 01:13:49;;;;;;;29.30;20.43;;;17.30;45.20;;;;;;5031188;28;20404;-70
2022/05/10 01:16:19;;;;;;;27.97;20.10;;;17.30;45.20;;;;;;5034865;28;20911;-70
2022/05/10 01:18:48;;;;;;;28.53;20.00;;;17.40;45.00;;;;;;5024480;28;20440;-70
2022/05/10 01:21:51;;;;;;;29.17;21.43;;;17.30;44.40;;;;;;5025276;28;20594;-70
2022/05/10 01:24:21;;;;;;;28.77;20.70;;;17.10;45.70;;;;;;5034537;28;20399;-70
2022/05/10 01:26:56;;;;;;;30.80;21.50;;;17.00;46.00;;;;;;5030529;28;20407;-70
2022/05/10 01:30:01;;;;;;;28.07;20.20;;;16.90;46.10;;;;;;5012427;28;20627;-71
2022/05/10 01:35:34;;;;;;;30.73;20.43;;;16.90;45.90;;;;;;5020502;28;20447;-70
2022/05/10 01:38:06;;;;;;;26.63;19.60;;;16.80;46.50;;;;;;5022797;28;20415;-70
2022/05/10 01:40:45;;;;;;;30.50;20.80;;;16.70;46.50;;;;;;5018470;28;20972;-71
2022/05/10 01:43:47;;;;;;;25.83;20.13;;;16.80;46.40;;;;;;5012752;28;20453;-71
2022/05/10 01:46:19;;;;;;;27.40;21.37;;;16.80;46.70;;;;;;4963487;28;20449;-70
2022/05/10 01:48:50;;;;;;;32.63;22.70;;;16.80;47.10;;;;;;4966776;28;20409;-70
2022/05/10 01:51:31;;;;;;;31.33;20.67;;;16.90;45.80;;;;;;4972271;28;20465;-70
2022/05/10 01:53:57;;;;;;;29.00;22.10;;;16.80;45.20;;;;;;4973126;28;20410;-70
2022/05/10 01:56:25;;;;;;;32.17;22.50;;;16.70;46.20;;;;;;4970685;28;20481;-70
2022/05/10 01:58:53;;;;;;;35.10;21.40;;;16.60;46.30;;;;;;4962178;28;20203;-70
2022/05/10 02:01:31;;;;;;;28.07;21.47;;;16.40;47.10;;;;;;4963821;28;20515;-70
2022/05/10 02:04:00;;;;;;;28.90;21.87;;;16.40;48.10;;;;;;4964642;28;20946;-70
2022/05/10 02:06:45;;;;;;;34.10;22.13;;;16.30;47.60;;;;;;4953419;29;20419;-70
2022/05/10 02:09:43;;;;;;;31.63;22.97;;;16.70;46.70;;;;;;4969544;28;20947;-71
2022/05/10 02:12:14;;;;;;;31.60;23.43;;;16.50;47.30;;;;;;4964968;28;20607;-70
2022/05/10 02:14:39;;;;;;;31.93;22.27;;;16.40;48.10;;;;;;4972786;28;20469;-71
2022/05/10 02:17:20;;;;;;;29.30;22.63;;;16.50;48.20;;;;;;4972692;28;20916;-70
2022/05/10 02:20:03;;;;;;;28.20;20.20;;;16.50;48.80;;;;;;4969853;28;20614;-70
2022/05/10 02:22:32;;;;;;;30.10;21.63;;;16.40;47.90;;;;;;4976872;28;20470;-70
2022/05/10 02:25:01;;;;;;;29.83;20.63;;;16.40;47.80;;;;;;5015749;28;20437;-70
2022/05/10 02:27:39;;;;;;;30.77;20.27;;;16.10;48.60;;;;;;5020410;28;20434;-70
2022/05/10 02:30:09;;;;;;;30.27;21.10;;;16.00;49.20;;;;;;5021678;28;20528;-70
2022/05/10 02:33:07;;;;;;;29.50;21.93;;;15.90;50.60;;;;;;5021396;28;20428;-70
2022/05/10 02:35:55;;;;;;;33.43;21.77;;;16.40;49.80;;;;;;5013908;28;20404;-70
2022/05/10 02:38:33;;;;;;;30.87;20.53;;;16.10;49.00;;;;;;5019449;28;20432;-70
2022/05/10 02:41:02;;;;;;;29.20;22.23;;;16.20;48.50;;;;;;5021510;28;20462;-71
2022/05/10 02:43:31;;;;;;;34.33;23.33;;;16.30;47.70;;;;;;5013370;28;20412;-70
2022/05/10 02:45:57;;;;;;;36.40;24.30;;;16.40;47.90;;;;;;5012375;28;20436;-70
2022/05/10 02:48:32;;;;;;;31.70;23.87;;;16.20;47.60;;;;;;5017283;28;20438;-70
2022/05/10 02:50:58;;;;;;;34.80;25.27;;;16.10;47.30;;;;;;5029797;28;20445;-71
2022/05/10 02:53:25;;;;;;;30.30;23.53;;;16.10;48.20;;;;;;5033266;28;20818;-71
2022/05/10 02:55:58;;;;;;;34.07;25.00;;;15.90;48.80;;;;;;5019978;28;20448;-70
2022/05/10 02:58:29;;;;;;;35.77;24.77;;;16.00;48.80;;;;;;5004679;28;20435;-70
2022/05/10 03:01:17;;;;;;;34.40;24.87;;;16.00;49.40;;;;;;5022836;28;21009;-70
2022/05/10 03:03:42;;;;;;;32.40;23.10;;;16.10;48.10;;;;;;5019749;28;20943;-71
2022/05/10 03:06:08;;;;;;;30.07;23.80;;;16.00;48.50;;;;;;5014988;28;20472;-71
2022/05/10 03:08:34;;;;;;;36.37;24.40;;;16.10;47.50;;;;;;5011278;28;20645;-69
2022/05/10 03:11:00;;;;;;;30.77;23.40;;;15.90;48.00;;;;;;5020771;28;20586;-70
2022/05/10 03:13:26;;;;;;;33.93;23.97;;;16.00;48.40;;;;;;5019125;28;20238;-71
2022/05/10 03:15:52;;;;;;;36.47;24.67;;;16.00;47.90;;;;;;5012261;28;20439;-71
2022/05/10 03:18:17;;;;;;;30.43;23.77;;;15.90;48.10;;;;;;5020990;28;20447;-71
2022/05/10 03:20:44;;;;;;;40.70;25.40;;;15.90;47.90;;;;;;5012117;28;20293;-71
2022/05/10 03:23:09;;;;;;;40.83;25.30;;;15.90;47.50;;;;;;5017292;28;20184;-71
2022/05/10 03:25:35;;;;;;;38.60;26.10;;;15.90;47.40;;;;;;5026129;28;20426;-71
2022/05/10 03:28:01;;;;;;;37.17;24.63;;;15.90;48.60;;;;;;5026196;28;20454;-70
2022/05/10 03:30:28;;;;;;;37.83;25.57;;;15.90;48.50;;;;;;5020508;28;20173;-71
2022/05/10 03:32:54;;;;;;;33.97;22.90;;;15.80;48.00;;;;;;5010754;28;20188;-71
2022/05/10 03:35:21;;;;;;;32.67;24.00;;;15.80;47.80;;;;;;5020058;28;20419;-71
2022/05/10 03:37:47;;;;;;;30.83;23.50;;;15.90;48.20;;;;;;5011019;28;20444;-71
2022/05/10 03:40:13;;;;;;;30.83;23.03;;;15.80;48.50;;;;;;5020511;28;20414;-71
2022/05/10 03:42:47;;;;;;;37.00;22.30;;;15.80;48.10;;;;;;5012170;28;20437;-70
2022/05/10 03:45:15;;;;;;;29.87;22.97;;;16.00;47.40;;;;;;5018634;28;20444;-71
2022/05/10 03:47:40;;;;;;;28.40;21.87;;;15.90;47.50;;;;;;5016008;28;20812;-71
2022/05/10 03:50:08;;;;;;;32.30;23.43;;;15.80;47.90;;;;;;5020447;28;20415;-71
2022/05/10 03:52:35;;;;;;;36.10;23.53;;;15.70;48.40;;;;;;5012008;28;20723;-71
2022/05/10 03:55:00;;;;;;;35.63;24.60;;;15.70;48.50;;;;;;5010520;28;20789;-71
2022/05/10 03:57:26;;;;;;;37.50;24.07;;;15.70;48.70;;;;;;5031070;28;20421;-70
2022/05/10 03:59:52;;;;;;;29.90;23.43;;;15.70;48.40;;;;;;5018503;28;20626;-70
2022/05/10 04:02:18;;;;;;;32.20;23.07;;;15.80;48.20;;;;;;5012050;28;20215;-71
2022/05/10 04:04:44;;;;;;;32.30;24.23;;;15.80;48.00;;;;;;5018219;28;20675;-70
2022/05/10 04:07:10;;;;;;;30.67;22.97;;;15.80;48.40;;;;;;5030416;28;20420;-72
2022/05/10 04:09:35;;;;;;;33.40;23.73;;;15.70;48.50;;;;;;5019186;28;20201;-71
2022/05/10 04:12:02;;;;;;;34.97;23.10;;;15.80;48.30;;;;;;5014332;28;20222;-71
2022/05/10 04:14:28;;;;;;;35.87;23.77;;;15.70;47.90;;;;;;5011988;28;20187;-72
2022/05/10 04:16:54;;;;;;;31.80;22.20;;;15.70;48.10;;;;;;5018433;28;20422;-71
2022/05/10 04:19:19;;;;;;;34.87;23.20;;;15.60;48.90;;;;;;5011706;28;20812;-71
2022/05/10 04:21:45;;;;;;;30.67;23.70;;;15.60;49.50;;;;;;5005704;28;20217;-72
2022/05/10 04:24:11;;;;;;;35.93;24.33;;;15.60;50.40;;;;;;4994695;28;20191;-71
2022/05/10 04:26:37;;;;;;;29.13;23.20;;;15.60;49.00;;;;;;5018348;28;20180;-70
2022/05/10 04:29:03;;;;;;;31.47;23.77;;;15.60;49.90;;;;;;5011750;28;20172;-71
2022/05/10 04:31:29;;;;;;;37.87;22.90;;;15.60;50.20;;;;;;5018065;28;20477;-71
2022/05/10 04:33:54;;;;;;;29.93;23.20;;;15.70;49.70;;;;;;5027462;28;20513;-70
2022/05/10 04:36:23;;;;;;;36.33;22.90;;;15.60;50.70;;;;;;5022473;28;20654;-71
2022/05/10 04:38:49;;;;;;;34.43;23.40;;;15.60;50.30;;;;;;5026928;28;20178;-71
2022/05/10 04:41:26;;;;;;;34.73;24.33;;;15.90;50.10;;;;;;5030901;28;20470;-70
2022/05/10 04:44:07;;;;;;;33.40;24.13;;;16.00;49.70;;;;;;5031228;28;20493;-71
2022/05/10 04:46:35;;;;;;;38.57;23.30;;;16.00;49.90;;;;;;5022736;28;20522;-71
2022/05/10 04:49:01;;;;;;;31.57;24.00;;;16.00;50.20;;;;;;5021204;28;20413;-71
2022/05/10 04:51:28;;;;;;;30.50;23.67;;;16.20;49.70;;;;;;5014660;28;20531;-71
2022/05/10 04:53:54;;;;;;;34.27;24.30;;;16.30;49.50;;;;;;5022222;28;20418;-71
2022/05/10 04:56:20;;;;;;;39.53;24.00;;;16.30;50.70;;;;;;5012170;28;20435;-72
2022/05/10 04:58:46;;;;;;;32.50;23.77;;;16.40;50.40;;;;;;5023369;28;20473;-72
2022/05/10 05:01:15;;;;;;;44.33;24.80;;;16.40;50.10;;;;;;5014701;28;20596;-71
2022/05/10 05:03:46;;;;;;;36.47;23.13;;;16.20;48.90;;;;;;5015456;28;20449;-71
2022/05/10 05:06:12;;;;;;;32.20;23.30;;;16.30;49.60;;;;;;5015581;28;20416;-72
2022/05/10 05:08:37;;;;;;;31.43;23.07;;;16.60;49.10;;;;;;5021503;28;20435;-72
2022/05/10 05:11:04;;;;;;;33.13;23.63;;;16.80;47.60;;;;;;5032342;28;20439;-73
2022/05/10 05:13:29;;;;;;;40.53;24.40;;;17.00;47.10;;;;;;5035079;28;20245;-72
2022/05/10 05:15:55;;;;;;;31.93;22.07;;;17.00;47.90;;;;;;5034883;28;20413;-72
2022/05/10 05:18:21;;;;;;;31.80;24.73;;;17.00;47.40;;;;;;5018518;28;20655;-72
2022/05/10 05:20:48;;;;;;;41.30;25.70;;;16.90;46.80;;;;;;5019514;28;20201;-71
2022/05/10 05:23:16;;;;;;;37.43;25.63;;;16.70;47.80;;;;;;5015088;28;20491;-70
2022/05/10 05:25:41;;;;;;;36.00;24.77;;;16.60;47.90;;;;;;5014472;28;20902;-71
2022/05/10 05:28:09;;;;;;;39.10;26.43;;;16.60;48.70;;;;;;5015493;28;20504;-71
2022/05/10 05:30:35;;;;;;;39.23;26.37;;;16.70;48.60;;;;;;5026091;28;20685;-71
2022/05/10 05:33:01;;;;;;;38.10;27.80;;;16.50;47.60;;;;;;5034050;28;20495;-71
2022/05/10 05:35:26;;;;;;;41.03;26.37;;;16.70;47.80;;;;;;5031893;28;20957;-71
2022/05/10 05:37:54;;;;;;;37.93;27.50;;;16.70;47.80;;;;;;5020937;28;20446;-71
2022/05/10 05:40:21;;;;;;;36.00;25.53;;;17.00;48.40;;;;;;5012991;28;20195;-71
2022/05/10 05:42:47;;;;;;;40.00;26.50;;;17.20;46.50;;;;;;5022441;28;20407;-71
2022/05/10 05:45:15;;;;;;;61.60;29.77;;;16.80;46.40;;;;;;5013982;28;20427;-70
2022/05/10 05:47:41;;;;;;;41.57;28.27;;;16.50;47.80;;;;;;5014880;28;20432;-70
2022/05/10 05:50:09;;;;;;;46.27;28.70;;;16.50;47.60;;;;;;5013774;28;20459;-74
2022/05/10 05:52:35;;;;;;;39.53;28.20;;;16.20;48.20;;;;;;5013235;28;20465;-74
2022/05/10 05:55:01;;;;;;;34.57;25.50;;;16.20;49.30;;;;;;5033089;28;20976;-74
2022/05/10 05:57:26;;;;;;;43.43;26.80;;;16.10;50.40;;;;;;5014370;28;20495;-74
2022/05/10 05:59:53;;;;;;;47.63;26.73;;;16.10;50.20;;;;;;5017563;28;20179;-74
2022/05/10 06:02:21;;;;;;;37.77;27.03;;;16.10;50.40;;;;;;5011542;28;20212;-74
2022/05/10 06:04:47;;;;;;;36.33;24.47;;;15.90;53.60;;;;;;5014299;28;20474;-74
2022/05/10 06:07:15;;;;;;;38.20;25.00;;;16.10;51.40;;;;;;5008201;28;20932;-74
2022/05/10 06:09:42;;;;;;;41.43;23.50;;;15.70;53.10;;;;;;5020050;28;20204;-69
2022/05/10 06:12:10;;;;;;;34.03;24.40;;;15.60;54.40;;;;;;5013312;28;20518;-71
2022/05/10 06:14:37;;;;;;;38.47;23.10;;;15.90;54.10;;;;;;5019350;28;20535;-71
2022/05/10 06:17:03;;;;;;;30.43;22.40;;;16.00;52.60;;;;;;5021287;28;20438;-72
2022/05/10 06:19:30;;;;;;;32.33;22.60;;;15.80;54.80;;;;;;5014102;28;20484;-72
2022/05/10 06:21:56;;;;;;;29.20;20.93;;;16.10;52.30;;;;;;5010929;28;20551;-70
2022/05/10 06:24:25;;;;;;;37.43;22.60;;;16.20;52.90;;;;;;5012832;28;20441;-71
2022/05/10 06:26:51;;;;;;;30.23;20.80;;;15.90;54.10;;;;;;5031619;28;20419;-71
2022/05/10 06:29:17;;;;;;;32.83;20.20;;;16.30;52.60;;;;;;5018212;28;20431;-70
2022/05/10 06:31:44;;;;;;;30.13;20.90;;;16.60;50.80;;;;;;5013293;28;20799;-73
2022/05/10 06:34:10;;;;;;;31.80;20.90;;;16.40;52.30;;;;;;5011179;28;21000;-73
2022/05/10 06:36:37;;;;;;;30.33;21.40;;;17.00;50.60;;;;;;5016768;28;20801;-72
2022/05/10 06:39:03;;;;;;;30.50;22.03;;;17.30;48.00;;;;;;5019135;28;20430;-75
2022/05/10 06:41:31;;;;;;;35.90;22.43;;;17.70;46.70;;;;;;5017340;28;21051;-75
2022/05/10 06:43:57;;;;;;;27.30;20.17;;;17.90;47.60;;;;;;5018195;28;20233;-72
2022/05/10 06:46:23;;;;;;;29.70;20.70;;;17.20;49.20;;;;;;5020807;28;20495;-73
2022/05/10 06:48:49;;;;;;;36.13;20.40;;;17.00;49.10;;;;;;5012316;28;20530;-73
2022/05/10 06:51:17;;;;;;;30.67;20.27;;;16.90;49.80;;;;;;5018337;28;20205;-73
2022/05/10 06:53:43;;;;;;;24.40;18.83;;;17.90;47.70;;;;;;5015058;28;20509;-77
2022/05/10 06:56:10;;;;;;;26.80;18.80;;;18.70;44.20;;;;;;5014955;28;20428;-72
2022/05/10 06:58:36;;;;;;;27.83;21.00;;;18.40;44.60;;;;;;5028658;28;20182;-72
2022/05/10 07:01:04;;;;;;;27.20;20.40;;;18.30;45.70;;;;;;5015217;28;20883;-71
2022/05/10 07:03:32;;;;;;;28.23;20.80;;;18.70;42.90;;;;;;5017935;28;20430;-72
2022/05/10 07:06:03;;;;;;;34.40;19.37;;;18.80;43.10;;;;;;5012962;28;20438;-72
2022/05/10 07:08:30;;;;;;;24.70;18.87;;;17.90;46.50;;;;;;5011377;28;20472;-71
2022/05/10 07:10:55;;;;;;;28.30;20.00;;;18.20;46.30;;;;;;5011304;28;20455;-71
2022/05/10 07:13:27;;;;;;;25.23;19.30;;;18.20;46.50;;;;;;5020539;28;20777;-71
2022/05/10 07:15:53;;;;;;;28.00;18.60;;;18.50;45.10;;;;;;5011388;28;20200;-71
2022/05/10 07:18:19;;;;;;;25.00;19.77;;;18.10;46.90;;;;;;5016433;28;21025;-72
2022/05/10 07:20:46;;;;;;;22.57;18.43;;;18.10;46.40;;;;;;5019891;28;20597;-71
2022/05/10 07:23:13;;;;;;;22.63;17.67;;;18.80;45.40;;;;;;5023032;28;20431;-72
2022/05/10 07:25:39;;;;;;;25.27;18.47;;;19.00;43.70;;;;;;5018538;28;20403;-72
2022/05/10 07:28:06;;;;;;;25.03;18.63;;;19.00;43.60;;;;;;5018885;28;20417;-72
2022/05/10 07:30:33;;;;;;;22.93;18.00;;;19.50;43.40;;;;;;5015899;28;20503;-72
2022/05/10 07:32:59;;;;;;;29.80;19.70;;;20.30;42.00;;;;;;5009542;28;20439;-71
2022/05/10 07:38:12;;;;;;;26.80;17.97;;;19.70;40.50;;;;;;5010748;28;20447;-72
2022/05/10 07:40:39;;;;;;;23.63;16.90;;;19.50;41.70;;;;;;5007267;28;20468;-72
2022/05/10 07:43:05;;;;;;;23.70;16.37;;;19.60;41.30;;;;;;5012379;28;20528;-72
2022/05/10 07:45:32;;;;;;;22.57;16.37;;;19.70;40.30;;;;;;5011175;28;20476;-73
2022/05/10 07:47:57;;;;;;;24.00;17.57;;;20.60;38.90;;;;;;5011370;28;20850;-72
2022/05/10 07:50:23;;;;;;;26.07;17.60;;;20.90;36.70;;;;;;5011496;28;20434;-72
2022/05/10 07:52:48;;;;;;;25.90;18.37;;;20.20;38.50;;;;;;5011752;28;20233;-72
2022/05/10 07:55:14;;;;;;;23.57;18.50;;;20.60;38.00;;;;;;5011167;28;20177;-71
2022/05/10 07:57:42;;;;;;;26.27;19.10;;;20.30;37.90;;;;;;5010010;28;20179;-72
2022/05/10 08:00:08;;;;;;;22.03;17.10;;;20.60;38.40;;;;;;5010509;28;20196;-72
2022/05/10 08:02:35;;;;;;;22.97;17.67;;;20.80;37.50;;;;;;5010385;28;20477;-72
2022/05/10 08:05:02;;;;;;;25.07;17.20;;;21.20;36.20;;;;;;5011797;28;20421;-72
2022/05/10 08:07:28;;;;;;;23.10;16.93;;;21.50;35.80;;;;;;5011932;28;20471;-72
2022/05/10 08:09:54;;;;;;;20.57;16.07;;;21.40;35.40;;;;;;5011625;28;20418;-72
2022/05/10 08:12:20;;;;;;;23.53;16.50;;;21.00;36.50;;;;;;5011930;28;20223;-72
2022/05/10 08:14:46;;;;;;;21.53;16.80;;;20.90;36.10;;;;;;5011736;28;20465;-72
2022/05/10 08:17:12;;;;;;;25.60;17.73;;;21.20;36.20;;;;;;5010574;28;20404;-72
2022/05/10 08:19:37;;;;;;;23.83;19.37;;;21.70;34.90;;;;;;5009695;28;20669;-72
2022/05/10 08:22:03;;;;;;;24.57;19.00;;;21.60;34.70;;;;;;5011438;28;20212;-72
2022/05/10 08:24:29;;;;;;;23.70;18.90;;;20.90;35.30;;;;;;5011067;28;20661;-72
2022/05/10 08:26:55;;;;;;;23.57;17.53;;;20.60;36.60;;;;;;5011813;28;20411;-71
2022/05/10 08:29:20;;;;;;;21.40;16.63;;;20.80;36.30;;;;;;5010598;28;20173;-72
2022/05/10 08:31:46;;;;;;;18.87;15.33;;;21.20;35.60;;;;;;5010736;28;20459;-73
2022/05/10 08:34:12;;;;;;;19.33;16.13;;;22.10;35.10;;;;;;5011577;28;20186;-72
2022/05/10 08:36:37;;;;;;;21.03;16.63;;;22.20;33.00;;;;;;5011715;28;20180;-73
2022/05/10 08:39:03;;;;;;;21.97;15.50;;;23.00;32.60;;;;;;5011552;28;20256;-72
2022/05/10 08:41:52;;;;;;;26.70;16.50;;;23.00;30.70;;;;;;5011213;28;20216;-72
2022/05/10 08:44:24;;;;;;;20.40;16.20;;;22.40;31.60;;;;;;5011796;28;20149;-72
2022/05/10 08:46:54;;;;;;;21.03;14.90;;;22.10;32.70;;;;;;5010505;28;20479;-72
2022/05/10 08:49:25;;;;;;;18.23;15.20;;;22.10;32.90;;;;;;5011628;28;20925;-72
2022/05/10 08:51:52;;;;;;;26.17;16.30;;;22.60;33.10;;;;;;5011001;28;20818;-72
2022/05/10 08:54:18;;;;;;;21.60;13.73;;;22.70;32.90;;;;;;5011179;28;20433;-72
2022/05/10 08:56:53;;;;;;;18.67;13.33;;;22.70;30.90;;;;;;5011393;28;20414;-72
2022/05/10 08:59:39;;;;;;;16.23;13.73;;;22.80;30.70;;;;;;4992113;28;20294;-72
2022/05/10 09:02:15;;;;;;;18.93;12.53;;;22.10;32.30;;;;;;4990513;28;20571;-72
2022/05/10 09:05:04;;;;;;;17.40;12.60;;;21.90;32.20;;;;;;4995096;28;20422;-73
2022/05/10 09:07:47;;;;;;;23.30;12.60;;;22.10;32.50;;;;;;5011575;28;20396;-72
2022/05/10 09:10:27;;;;;;;18.90;14.07;;;22.90;30.80;;;;;;5011608;28;20469;-72
2022/05/10 09:13:10;;;;;;;25.13;13.23;;;22.70;31.00;;;;;;5011196;28;20457;-72
2022/05/10 09:15:47;;;;;;;17.10;13.03;;;23.00;30.90;;;;;;5011210;28;20419;-73
2022/05/10 09:18:23;;;;;;;15.40;12.33;;;22.60;31.30;;;;;;5011483;28;20384;-72
2022/05/10 09:21:11;;;;;;;14.87;11.33;;;22.80;29.60;;;;;;5010786;28;20467;-72
2022/05/10 09:23:48;;;;;;;14.60;10.90;;;23.10;30.00;;;;;;5011400;28;20407;-72
2022/05/10 09:26:14;;;;;;;14.37;11.40;;;23.20;29.60;;;;;;5011194;28;20877;-72
2022/05/10 09:28:50;;;;;;;15.70;12.23;;;23.10;29.10;;;;;;5010170;28;21068;-72
2022/05/10 09:37:24;;;;;;;14.20;10.20;;;24.10;27.20;;;;;;5015004;28;20395;-73
2022/05/10 09:39:59;;;;;;;14.73;10.30;;;24.70;25.80;;;;;;5008232;28;20490;-72
2022/05/10 09:42:38;;;;;;;13.77;10.40;;;24.90;26.70;;;;;;5014194;28;20560;-72
2022/05/10 09:45:07;;;;;;;14.80;11.10;;;24.20;26.80;;;;;;5013161;28;20469;-72
2022/05/10 09:47:34;;;;;;;13.90;10.27;;;24.00;28.80;;;;;;5014755;28;20420;-73
2022/05/10 09:50:21;;;;;;;17.10;11.00;;;24.60;28.20;;;;;;5014567;28;20423;-73
2022/05/10 09:52:48;;;;;;;15.27;11.00;;;25.10;26.30;;;;;;5014385;28;20454;-73
2022/05/10 09:55:29;;;;;;;12.60;9.80;;;25.90;27.90;;;;;;5013842;28;20481;-73
2022/05/10 09:57:55;;;;;;;20.23;10.07;;;25.90;24.60;;;;;;5014616;28;20412;-72
2022/05/10 10:00:39;;;;;;;15.30;10.00;;;25.60;24.80;;;;;;5014398;28;20499;-73
2022/05/10 10:03:05;;;;;;;16.07;9.73;;;26.10;22.60;;;;;;5013824;28;20816;-73
2022/05/10 10:05:33;;;;;;;16.73;9.77;;;26.60;24.90;;;;;;5013956;28;20495;-73
2022/05/10 10:07:58;;;;;;;11.20;9.20;;;26.50;23.30;;;;;;5014229;28;20197;-72
2022/05/10 10:10:36;;;;;;;13.73;9.13;;;24.70;24.90;;;;;;5013555;28;20863;-73
2022/05/10 10:13:27;;;;;;;11.13;9.70;;;25.10;26.90;;;;;;5014119;28;20180;-72
2022/05/10 10:15:53;;;;;;;13.00;9.80;;;25.00;24.90;;;;;;5014155;28;20408;-73
2022/05/10 10:18:43;;;;;;;12.37;9.40;;;25.90;26.50;;;;;;5013997;28;20404;-73
2022/05/10 10:21:13;;;;;;;9.43;7.87;;;27.10;24.10;;;;;;5013188;28;20463;-73
2022/05/10 10:23:42;;;;;;;10.77;7.80;;;26.50;21.90;;;;;;5014050;28;20412;-72
2022/05/10 10:26:24;;;;;;;10.60;7.73;;;26.30;22.70;;;;;;5013182;28;20932;-72
2022/05/10 10:28:56;;;;;;;9.40;8.07;;;26.20;20.60;;;;;;5013439;28;20419;-72
2022/05/10 10:31:30;;;;;;;13.10;8.60;;;26.00;23.30;;;;;;5013347;28;20917;-73
2022/05/10 10:34:11;;;;;;;13.23;8.43;;;26.40;22.00;;;;;;5011597;28;20904;-73
2022/05/10 10:36:52;;;;;;;8.73;7.87;;;26.10;22.10;;;;;;5013090;28;20432;-72
2022/05/10 10:39:52;;;;;;;9.43;7.33;;;25.90;20.90;;;;;;5015556;28;20926;-73
2022/05/10 10:42:29;;;;;;;8.40;7.17;;;26.00;20.00;;;;;;5020244;28;20474;-72
2022/05/10 10:44:58;;;;;;;7.97;6.80;;;24.90;20.80;;;;;;5019659;28;20798;-73
2022/05/10 10:47:36;;;;;;;9.57;6.90;;;25.80;20.10;;;;;;5009598;28;20506;-73
2022/05/10 10:50:13;;;;;;;10.40;7.63;;;25.80;19.10;;;;;;5013839;28;20431;-72
2022/05/10 10:52:39;;;;;;;9.00;6.60;;;25.90;20.80;;;;;;5013763;28;20463;-72
2022/05/10 10:55:07;;;;;;;12.23;6.83;;;26.90;18.70;;;;;;5024701;28;20418;-73
2022/05/10 10:57:51;;;;;;;8.97;6.83;;;27.20;18.70;;;;;;5013408;28;20790;-73
2022/05/10 11:00:19;;;;;;;11.07;7.47;;;27.00;19.30;;;;;;5004384;28;20443;-72
2022/05/10 11:03:08;;;;;;;8.93;6.70;;;27.10;18.60;;;;;;5017316;28;20467;-72
2022/05/10 11:06:08;;;;;;;9.20;7.20;;;27.10;18.20;;;;;;5019804;28;20418;-71
2022/05/10 11:08:55;;;;;;;9.83;6.40;;;26.40;19.00;;;;;;5012585;28;20416;-73
2022/05/10 11:11:30;;;;;;;10.90;7.00;;;26.80;16.80;;;;;;5011667;28;20444;-72
2022/05/10 11:14:29;;;;;;;10.83;6.97;;;26.50;18.30;;;;;;5020281;28;20513;-72
2022/05/10 11:17:06;;;;;;;7.57;6.30;;;27.40;17.60;;;;;;4996876;28;20411;-72
2022/05/10 11:19:50;;;;;;;6.90;5.93;;;28.80;16.90;;;;;;5013172;28;20886;-73
2022/05/10 11:22:38;;;;;;;14.20;6.40;;;27.80;15.90;;;;;;5011500;28;20499;-72
2022/05/10 11:25:11;;;;;;;8.27;5.40;;;28.80;15.00;;;;;;5020135;28;20430;-72
2022/05/10 11:28:04;;;;;;;6.33;5.17;;;28.30;13.90;;;;;;5011618;28;20453;-71
2022/05/10 11:30:45;;;;;;;7.10;4.70;;;28.50;13.80;;;;;;5016207;28;20506;-73
2022/05/10 11:33:40;;;;;;;8.10;5.03;;;28.50;13.60;;;;;;5013059;28;20477;-72
2022/05/10 11:36:34;;;;;;;11.63;5.23;;;28.70;13.20;;;;;;5018071;28;20420;-72
2022/05/10 11:39:37;;;;;;;13.20;5.23;;;30.80;12.30;;;;;;5019618;28;20478;-72
2022/05/10 11:42:44;;;;;;;5.30;4.10;;;32.60;10.60;;;;;;5016311;28;20463;-72
2022/05/10 11:45:22;;;;;;;5.10;4.10;;;32.70;9.20;;;;;;4974893;28;20416;-72
2022/05/10 11:48:17;;;;;;;5.17;3.83;;;32.40;7.50;;;;;;5008631;28;20522;-73
2022/05/10 11:54:49;;;;;;;5.27;3.73;;;32.80;7.70;;;;;;5012350;28;20429;-71
2022/05/10 11:57:18;;;;;;;7.47;4.33;;;30.20;9.30;;;;;;4964370;28;20451;-72
2022/05/10 11:59:45;;;;;;;7.43;4.50;;;28.30;12.00;;;;;;5019518;28;20936;-72
2022/05/10 12:02:28;;;;;;;7.80;4.93;;;28.20;12.90;;;;;;5028085;28;20467;-71
2022/05/10 12:05:09;;;;;;;9.60;5.07;;;28.40;12.50;;;;;;5031904;28;20472;-72
2022/05/10 12:07:43;;;;;;;7.60;4.30;;;28.10;13.60;;;;;;5010620;28;20427;-72
2022/05/10 12:10:27;;;;;;;9.43;4.87;;;28.90;12.00;;;;;;5016127;28;20486;-72
2022/05/10 12:12:57;;;;;;;6.10;4.63;;;31.50;10.00;;;;;;5019768;28;20461;-73
2022/05/10 12:21:37;;;;;;;4.67;3.80;;;33.70;6.50;;;;;;5014923;28;20458;-72
2022/05/10 12:24:05;;;;;;;4.80;4.13;;;32.20;8.50;;;;;;5011222;28;20822;-73
2022/05/10 12:26:43;;;;;;;5.60;4.00;;;31.10;10.20;;;;;;5019358;28;20527;-72
2022/05/10 12:29:37;;;;;;;8.83;4.50;;;30.40;10.00;;;;;;5022685;28;20438;-73
2022/05/10 12:32:11;;;;;;;9.70;4.40;;;30.30;9.90;;;;;;5018194;28;20451;-72
2022/05/10 12:34:46;;;;;;;10.97;4.77;;;30.70;10.60;;;;;;5015294;28;20477;-73
2022/05/10 12:37:31;;;;;;;7.90;4.47;;;31.40;8.40;;;;;;5012884;28;20431;-72
2022/05/10 12:40:19;;;;;;;5.93;4.30;;;29.70;10.60;;;;;;5011247;28;20408;-74
2022/05/10 12:43:07;;;;;;;8.70;4.70;;;29.40;10.90;;;;;;5006064;28;21152;-74
2022/05/10 12:46:17;;;;;;;7.37;4.50;;;30.80;10.70;;;;;;5011101;28;20580;-75
2022/05/10 12:48:45;;;;;;;6.27;4.13;;;30.40;9.90;;;;;;5007253;28;20791;-75
2022/05/10 12:51:48;;;;;;;7.67;4.77;;;28.80;10.80;;;;;;5018507;28;20436;-74
2022/05/10 12:54:17;;;;;;;5.87;4.60;;;30.10;11.80;;;;;;5031092;28;20971;-74
2022/05/10 12:56:44;;;;;;;7.50;4.27;;;31.50;9.80;;;;;;5012877;28;20423;-73
2022/05/10 12:59:39;;;;;;;5.10;4.37;;;29.90;10.40;;;;;;5009958;28;20444;-72
2022/05/10 13:02:10;;;;;;;7.97;4.97;;;29.70;11.00;;;;;;5014836;28;20482;-74
2022/05/10 13:04:40;;;;;;;6.37;4.47;;;30.60;10.50;;;;;;5019883;28;20423;-74
2022/05/10 13:07:14;;;;;;;6.47;4.87;;;30.00;11.90;;;;;;5013591;28;20415;-73
2022/05/10 13:10:07;;;;;;;10.00;5.50;;;28.50;12.30;;;;;;5011736;28;20786;-74
2022/05/10 13:12:43;;;;;;;10.60;5.13;;;29.10;13.40;;;;;;5013601;28;20601;-74
2022/05/10 13:15:13;;;;;;;8.30;5.10;;;29.50;11.10;;;;;;5024970;28;20412;-75
2022/05/10 13:17:45;;;;;;;8.97;5.63;;;28.50;14.20;;;;;;5025169;28;20435;-75
2022/05/10 13:20:13;;;;;;;7.53;5.47;;;28.80;12.60;;;;;;5020800;28;20438;-76